Time;durP1;ratioP1;P1;durP2;ratioP2;P2;SDS_P1;SDS_P2;PMS_P1;PMS_P2;Temp;Humidity;BMP_temperature;BMP_pressure;BME280_temperature;BME280_humidity;BME280_pressure;Samples;Min_cycle;Max_cycle;Signal;HPM_P1;HPM_P2
2023/08/30 00:00:11;;;;;;;27.83;11.82;;;;;;;28.00;96.40;99655.34;5012872;28;20401;-81
2023/08/30 00:02:36;;;;;;;16.63;12.13;;;;;;;28.02;96.78;99663.34;5010141;28;20498;-82
2023/08/30 00:05:03;;;;;;;18.70;12.15;;;;;;;28.02;97.00;99658.66;4966797;28;20399;-82
2023/08/30 00:07:30;;;;;;;18.75;12.13;;;;;;;27.97;97.11;99650.31;5012940;28;20022;-83
2023/08/30 00:09:56;;;;;;;13.93;11.82;;;;;;;27.90;97.35;99644.16;4982408;28;20026;-82
2023/08/30 00:12:22;;;;;;;20.63;12.82;;;;;;;28.01;96.96;99656.97;4993667;28;20150;-81
2023/08/30 00:14:47;;;;;;;18.35;11.63;;;;;;;27.98;97.03;99663.03;4998340;28;20030;-83
2023/08/30 00:17:13;;;;;;;15.90;11.93;;;;;;;27.96;97.26;99664.41;5010099;28;20061;-83
2023/08/30 00:19:39;;;;;;;17.50;12.70;;;;;;;27.94;97.39;99664.66;5016326;28;20042;-78
2023/08/30 00:22:07;;;;;;;15.90;12.07;;;;;;;27.80;97.31;99644.06;5005892;28;20056;-82
2023/08/30 00:24:33;;;;;;;20.02;14.30;;;;;;;27.80;97.17;99640.44;4967808;28;20042;-81
2023/08/30 00:26:59;;;;;;;19.48;12.05;;;;;;;27.92;97.97;99658.56;4992638;28;20515;-81
2023/08/30 00:29:24;;;;;;;20.10;11.82;;;;;;;27.92;97.80;99652.22;4992661;28;20169;-82
2023/08/30 00:31:49;;;;;;;20.67;11.43;;;;;;;27.88;98.43;99651.91;4992741;28;20446;-79
2023/08/30 00:34:15;;;;;;;20.67;13.27;;;;;;;27.84;98.81;99649.91;4992504;28;20037;-81
2023/08/30 00:36:40;;;;;;;21.27;12.70;;;;;;;27.88;98.99;99651.91;4993256;28;20088;-82
2023/08/30 00:39:06;;;;;;;17.45;12.45;;;;;;;27.84;99.16;99647.97;4996110;28;20418;-81
2023/08/30 00:41:31;;;;;;;21.08;13.68;;;;;;;27.81;99.23;99651.25;4994318;28;20034;-82
2023/08/30 00:43:57;;;;;;;33.50;12.63;;;;;;;27.79;98.93;99642.41;4992761;28;20033;-81
2023/08/30 00:46:22;;;;;;;24.92;12.63;;;;;;;27.79;99.23;99647.94;4992606;28;20098;-80
2023/08/30 00:48:48;;;;;;;20.52;13.57;;;;;;;27.80;99.79;99649.59;4992412;28;20518;-80
2023/08/30 00:51:13;;;;;;;21.85;13.40;;;;;;;27.81;99.16;99651.25;4992662;28;20034;-81
2023/08/30 00:53:39;;;;;;;18.35;12.45;;;;;;;27.81;98.63;99644.91;4992633;28;20455;-81
2023/08/30 00:56:05;;;;;;;23.50;12.77;;;;;;;27.80;98.02;99649.59;4991881;28;20121;-82
2023/08/30 00:58:30;;;;;;;15.18;12.95;;;;;;;27.78;98.10;99649.03;4994505;28;20096;-82
2023/08/30 01:00:57;;;;;;;36.55;13.70;;;;;;;27.78;97.93;99643.50;4992667;28;20042;-82
2023/08/30 01:03:23;;;;;;;22.92;13.07;;;;;;;27.78;97.84;99637.13;4992236;28;20046;-81
2023/08/30 01:05:48;;;;;;;18.10;12.23;;;;;;;27.73;97.47;99626.88;4992119;28;20034;-81
2023/08/30 01:08:14;;;;;;;34.83;13.57;;;;;;;27.75;98.01;99635.72;4992154;28;20030;-81
2023/08/30 01:10:58;;;;;;;18.38;13.82;;;;;;;27.74;98.14;99642.34;4992438;28;20129;-83
2023/08/30 01:13:27;;;;;;;20.00;12.85;;;;;;;27.73;98.43;99640.69;4992478;28;20114;-84
2023/08/30 01:15:54;;;;;;;21.58;13.77;;;;;;;27.63;98.54;99628.69;4991624;28;20034;-83
2023/08/30 01:18:25;;;;;;;22.80;13.45;;;;;;;27.75;98.72;99648.69;4991911;28;20080;-82
2023/08/30 01:20:53;;;;;;;21.92;12.57;;;;;;;27.73;98.78;99654.50;4992505;28;20107;-82
2023/08/30 01:23:37;;;;;;;29.15;13.70;;;;;;;27.71;98.98;99648.38;4991868;28;20038;-83
2023/08/30 01:26:11;;;;;;;21.15;13.23;;;;;;;27.73;99.41;99671.09;4992156;28;20054;-83
2023/08/30 01:28:39;;;;;;;22.58;13.50;;;;;;;27.74;99.36;99658.91;4991670;28;20109;-81
2023/08/30 01:31:07;;;;;;;25.45;13.07;;;;;;;27.73;99.11;99654.50;4974241;28;20033;-80
2023/08/30 01:33:33;;;;;;;18.33;12.98;;;;;;;27.75;98.72;99657.84;4991546;28;20380;-80
2023/08/30 01:36:00;;;;;;;22.70;12.00;;;;;;;27.65;98.98;99663.25;4991467;28;20070;-81
2023/08/30 01:38:30;;;;;;;24.85;12.82;;;;;;;27.63;99.04;99654.38;4991627;28;20034;-80
2023/08/30 01:40:58;;;;;;;20.27;12.70;;;;;;;27.64;98.96;99661.59;4991529;28;20026;-82
2023/08/30 01:43:28;;;;;;;24.85;12.50;;;;;;;27.60;98.45;99665.94;4995663;28;20460;-81
2023/08/30 01:45:56;;;;;;;17.58;12.68;;;;;;;27.60;98.38;99671.47;5003062;28;20434;-84
2023/08/30 01:48:24;;;;;;;18.80;13.30;;;;;;;27.58;98.09;99661.78;4994403;28;20489;-82
2023/08/30 01:50:50;;;;;;;22.98;13.90;;;;;;;27.60;97.74;99654.91;4994168;28;20682;-82
2023/08/30 01:53:16;;;;;;;19.67;12.48;;;;;;;27.61;97.88;99661.25;4991354;28;20077;-83
2023/08/30 01:55:42;;;;;;;29.13;13.98;;;;;;;27.58;97.75;99651.56;5010578;28;20113;-83
2023/08/30 01:58:09;;;;;;;24.83;12.75;;;;;;;27.58;97.94;99657.09;5009305;28;20513;-84
2023/08/30 02:00:36;;;;;;;18.13;12.43;;;;;;;27.58;97.98;99657.91;5016824;28;20049;-79
2023/08/30 02:03:10;;;;;;;25.00;12.48;;;;;;;27.54;98.82;99653.19;5024419;28;20042;-84
2023/08/30 02:05:40;;;;;;;24.45;14.02;;;;;;;27.49;99.09;99653.94;5007119;28;20510;-81
2023/08/30 02:08:15;;;;;;;21.95;13.43;;;;;;;27.54;98.87;99656.78;4991627;28;20108;-84
2023/08/30 02:10:48;;;;;;;24.63;13.20;;;;;;;27.51;99.19;99657.28;4992242;28;20026;-85
2023/08/30 02:13:15;;;;;;;23.77;13.10;;;;;;;27.50;98.81;99655.63;4991156;28;20030;-79
2023/08/30 02:15:42;;;;;;;16.92;13.05;;;;;;;27.33;98.62;99624.47;4992347;28;20022;-84
2023/08/30 02:18:08;;;;;;;26.52;13.10;;;;;;;27.51;98.68;99650.94;5001763;28;20052;-80
2023/08/30 02:20:38;;;;;;;26.83;12.88;;;;;;;27.44;98.63;99645.59;5005471;28;20026;-76
2023/08/30 02:23:03;;;;;;;18.52;12.73;;;;;;;27.42;98.56;99641.41;5029949;28;20053;-78
2023/08/30 02:25:29;;;;;;;20.48;13.82;;;;;;;27.40;98.23;99641.66;5036392;28;20031;-76
2023/08/30 02:27:54;;;;;;;19.40;13.20;;;;;;;27.52;98.38;99650.66;5033265;28;20038;-82
2023/08/30 02:30:19;;;;;;;18.75;12.27;;;;;;;27.48;98.38;99652.28;5032057;28;20056;-79
2023/08/30 02:32:45;;;;;;;19.90;13.43;;;;;;;27.48;97.84;99645.94;5030517;28;20022;-80
2023/08/30 02:35:10;;;;;;;29.20;15.18;;;;;;;27.37;97.84;99622.00;4983868;28;20433;-82
2023/08/30 02:37:36;;;;;;;22.60;14.45;;;;;;;27.43;98.47;99643.13;5001996;28;20033;-81
2023/08/30 02:40:02;;;;;;;22.17;12.45;;;;;;;27.41;98.26;99634.19;5010210;28;20525;-83
2023/08/30 02:42:28;;;;;;;19.67;14.05;;;;;;;27.40;98.52;99640.84;5009909;28;20037;-82
2023/08/30 02:44:53;;;;;;;24.58;14.05;;;;;;;27.39;98.55;99641.91;5010083;28;20486;-79
2023/08/30 02:47:19;;;;;;;22.38;13.05;;;;;;;27.40;98.62;99641.66;5010077;28;20549;-82
2023/08/30 02:49:44;;;;;;;17.15;12.40;;;;;;;27.27;98.41;99622.72;5009690;28;20026;-82
2023/08/30 02:52:10;;;;;;;23.42;13.45;;;;;;;27.38;98.75;99646.59;5009774;28;20488;-80
2023/08/30 02:54:35;;;;;;;27.15;13.50;;;;;;;27.40;98.49;99644.41;5001525;28;20041;-82
2023/08/30 02:57:01;;;;;;;37.70;13.65;;;;;;;27.31;98.54;99637.66;4990137;28;20033;-80
2023/08/30 02:59:26;;;;;;;29.63;14.00;;;;;;;27.31;98.89;99645.94;4990141;28;20430;-81
2023/08/30 03:01:51;;;;;;;28.05;13.77;;;;;;;27.25;99.02;99635.09;4989858;28;20034;-82
2023/08/30 03:04:17;;;;;;;33.08;14.05;;;;;;;27.30;98.70;99647.06;4990131;28;20133;-82
2023/08/30 03:06:43;;;;;;;28.40;13.30;;;;;;;27.33;98.91;99640.19;4989850;28;20116;-80
2023/08/30 03:09:08;;;;;;;24.15;12.95;;;;;;;27.30;98.56;99646.22;4990088;28;20027;-82
2023/08/30 03:11:33;;;;;;;27.33;14.27;;;;;;;27.20;98.18;99624.00;4989935;28;20030;-79
2023/08/30 03:13:59;;;;;;;34.42;14.82;;;;;;;27.24;98.63;99633.44;4990282;28;20019;-82
2023/08/30 03:16:25;;;;;;;28.55;15.02;;;;;;;27.03;99.11;99608.34;4989939;28;20034;-82
2023/08/30 03:18:51;;;;;;;25.33;13.85;;;;;;;27.22;98.68;99630.94;4989265;28;20061;-84
2023/08/30 03:21:16;;;;;;;30.05;14.68;;;;;;;27.21;99.12;99629.28;4989926;28;20030;-83
2023/08/30 03:23:42;;;;;;;68.88;19.15;;;;;;;27.21;99.25;99639.50;4989743;28;20027;-80
2023/08/30 03:26:15;;;;;;;46.05;16.42;;;;;;;27.07;99.46;99616.09;4989553;28;20030;-81
2023/08/30 03:28:43;;;;;;;40.72;16.02;;;;;;;27.19;99.49;99625.09;4989952;28;20113;-83
2023/08/30 03:31:15;;;;;;;44.35;21.67;;;;;;;27.22;99.40;99641.13;4998246;28;20410;-82
2023/08/30 03:33:43;;;;;;;;;;;;;;;27.21;99.56;99645.00;5009846;28;20072;-81
2023/08/30 03:36:13;;;;;;;65.20;22.65;;;;;;;27.21;99.76;99645.00;5009390;28;20382;-83
2023/08/30 03:38:39;;;;;;;62.20;22.33;;;;;;;27.24;99.89;99647.25;5009162;28;20022;-82
2023/08/30 03:41:05;;;;;;;53.63;17.50;;;;;;;27.21;100.00;99648.63;5009141;28;20030;-81
2023/08/30 03:43:31;;;;;;;43.15;16.02;;;;;;;27.16;100.00;99648.53;5009353;28;20108;-80
2023/08/30 03:45:58;;;;;;;28.55;14.90;;;;;;;27.10;100.00;99638.50;5019249;28;20052;-82
2023/08/30 03:48:23;;;;;;;31.50;16.13;;;;;;;27.13;100.00;99654.56;5019260;28;20026;-79
2023/08/30 03:50:49;;;;;;;21.77;14.77;;;;;;;27.07;100.00;99638.19;5010882;28;20033;-87
2023/08/30 03:53:14;;;;;;;39.33;16.00;;;;;;;27.18;100.00;99657.41;5010781;28;20030;-88
2023/08/30 03:55:41;;;;;;;31.55;14.70;;;;;;;27.16;100.00;99647.69;5010404;28;20026;-87
2023/08/30 03:58:06;;;;;;;68.88;19.77;;;;;;;27.16;100.00;99653.22;5011345;28;20030;-90
2023/08/30 04:00:32;;;;;;;41.72;15.55;;;;;;;27.07;100.00;99647.31;5010124;28;20044;-87
2023/08/30 04:02:57;;;;;;;35.33;16.25;;;;;;;27.16;100.00;99656.81;5012401;28;20409;-81
2023/08/30 04:05:23;;;;;;;43.35;15.35;;;;;;;27.17;100.00;99655.72;5009051;28;20064;-79
2023/08/30 04:07:48;;;;;;;30.55;15.32;;;;;;;27.25;100.00;99657.19;5022674;28;20118;-80
2023/08/30 04:10:14;;;;;;;32.28;15.18;;;;;;;27.26;100.00;99658.88;5028742;28;20689;-82
2023/08/30 04:12:39;;;;;;;38.65;16.13;;;;;;;27.23;100.00;99659.38;5028622;28;20026;-80
2023/08/30 04:15:05;;;;;;;38.00;15.45;;;;;;;27.27;100.00;99660.56;5030362;28;20489;-80
2023/08/30 04:17:30;;;;;;;35.10;15.15;;;;;;;27.29;100.00;99661.13;5029048;28;20067;-81
2023/08/30 04:19:56;;;;;;;25.83;14.70;;;;;;;27.21;100.00;99653.28;4979371;28;20054;-80
2023/08/30 04:22:21;;;;;;;26.67;13.52;;;;;;;27.28;100.00;99663.03;5009880;28;20109;-85
2023/08/30 04:24:48;;;;;;;42.53;14.50;;;;;;;27.16;100.00;99653.22;5010795;28;20053;-80
2023/08/30 04:27:14;;;;;;;27.38;15.75;;;;;;;27.21;100.00;99667.09;5010056;28;20030;-87
2023/08/30 04:29:39;;;;;;;57.05;17.27;;;;;;;27.16;100.00;99655.97;5012829;28;20386;-90
2023/08/30 04:32:05;;;;;;;39.92;17.10;;;;;;;27.29;100.00;99675.75;4998635;28;20513;-84
2023/08/30 04:34:35;;;;;;;49.35;18.35;;;;;;;27.34;100.00;99684.09;4995646;28;20030;-85
2023/08/30 04:37:00;;;;;;;41.28;15.30;;;;;;;27.39;100.00;99677.81;4993810;28;20041;-85
2023/08/30 04:39:25;;;;;;;73.22;17.17;;;;;;;27.43;100.00;99687.31;4995737;28;20040;-87
2023/08/30 04:41:52;;;;;;;27.75;13.02;;;;;;;27.32;100.00;99669.72;4993844;28;20022;-81
2023/08/30 04:44:19;;;;;;;51.08;15.68;;;;;;;27.43;100.00;99690.06;4993122;28;20059;-86
2023/08/30 04:46:44;;;;;;;44.47;15.50;;;;;;;27.45;100.00;99687.88;4993900;28;20398;-87
2023/08/30 04:49:09;;;;;;;60.85;17.20;;;;;;;27.48;99.82;99690.13;4993636;28;20030;-83
2023/08/30 04:51:35;;;;;;;26.58;13.55;;;;;;;27.49;99.68;99691.81;4993548;28;20023;-85
2023/08/30 04:54:00;;;;;;;39.10;15.35;;;;;;;27.54;99.69;99691.84;4993622;28;20038;-86
2023/08/30 04:56:26;;;;;;;36.60;15.27;;;;;;;27.37;99.91;99664.25;4993399;28;20034;-81
2023/08/30 04:58:52;;;;;;;43.28;12.40;;;;;;;27.58;99.92;99679.19;4993174;28;20022;-82
2023/08/30 05:01:17;;;;;;;46.22;14.73;;;;;;;27.63;99.13;99679.25;4994494;28;20065;-83
2023/08/30 05:03:42;;;;;;;29.42;12.70;;;;;;;27.65;98.17;99688.09;4993510;28;20050;-89
2023/08/30 05:06:08;;;;;;;33.90;13.32;;;;;;;27.68;96.96;99676.53;4996126;28;20800;-86
2023/08/30 05:08:33;;;;;;;49.33;13.77;;;;;;;27.70;95.50;99682.66;5012460;28;20030;-84
2023/08/30 05:10:59;;;;;;;22.08;10.98;;;;;;;27.73;94.38;99697.88;4999646;28;20812;-81
2023/08/30 05:13:24;;;;;;;28.42;11.52;;;;;;;27.75;94.54;99691.00;5012201;28;20121;-80
2023/08/30 05:15:50;;;;;;;30.45;12.35;;;;;;;27.67;94.18;99672.13;4973548;28;20116;-85
2023/08/30 05:18:15;;;;;;;27.05;11.43;;;;;;;27.81;93.31;99697.41;4997403;28;20034;-95
2023/08/30 05:20:41;;;;;;;19.88;10.73;;;;;;;27.75;92.49;99693.75;4994643;28;20026;-86
2023/08/30 05:23:06;;;;;;;24.15;11.38;;;;;;;27.65;92.24;99667.91;4997663;28;20026;-87
2023/08/30 05:25:31;;;;;;;37.63;12.32;;;;;;;27.79;92.28;99677.50;4993988;28;20041;-79
2023/08/30 05:27:57;;;;;;;47.95;16.05;;;;;;;27.96;92.18;99694.81;4991994;28;20030;-81
2023/08/30 05:30:22;;;;;;;35.40;13.82;;;;;;;27.94;90.66;99686.78;4993852;28;20038;-79
2023/08/30 05:32:48;;;;;;;36.38;13.35;;;;;;;28.05;89.89;99696.88;4983357;28;20065;-79
2023/08/30 05:35:13;;;;;;;25.08;11.48;;;;;;;28.11;88.77;99700.50;4997143;28;20030;-79
2023/08/30 05:37:39;;;;;;;26.67;10.98;;;;;;;28.14;88.28;99693.63;4991937;28;20109;-79
2023/08/30 05:40:05;;;;;;;49.05;13.13;;;;;;;27.93;87.55;99642.81;4992224;28;20038;-80
2023/08/30 05:42:30;;;;;;;36.13;10.40;;;;;;;28.25;87.03;99695.41;4991240;28;20061;-81
2023/08/30 05:44:56;;;;;;;46.25;12.32;;;;;;;28.28;87.15;99700.41;4992698;28;21083;-81
2023/08/30 05:47:21;;;;;;;24.00;10.98;;;;;;;28.37;88.01;99704.38;4991924;28;20026;-80
2023/08/30 05:49:47;;;;;;;30.27;11.90;;;;;;;28.35;88.12;99689.94;4941077;28;20046;-80
2023/08/30 05:52:16;;;;;;;33.63;11.50;;;;;;;28.46;87.58;99702.78;4992544;28;20072;-88
2023/08/30 05:54:42;;;;;;;50.17;14.57;;;;;;;28.45;87.35;99699.19;5002158;28;20034;-86
2023/08/30 05:57:08;;;;;;;23.30;11.35;;;;;;;28.57;87.15;99699.00;5001330;28;20046;-87
2023/08/30 05:59:34;;;;;;;139.90;24.15;;;;;;;28.64;85.23;99702.38;4945069;28;20051;-88
2023/08/30 06:02:00;;;;;;;37.47;12.70;;;;;;;28.74;84.10;99701.66;4995901;28;20042;-84
2023/08/30 06:04:25;;;;;;;33.15;12.30;;;;;;;28.72;83.44;99704.66;5006601;28;20196;-86
2023/08/30 06:06:51;;;;;;;40.20;12.40;;;;;;;28.92;83.10;99713.13;4997406;28;20029;-80
2023/08/30 06:09:17;;;;;;;35.00;11.10;;;;;;;28.86;80.88;99711.44;4993607;28;20038;-81
2023/08/30 06:11:42;;;;;;;35.10;10.25;;;;;;;28.88;80.60;99723.06;5000391;28;20437;-88
2023/08/30 06:14:08;;;;;;;55.15;15.23;;;;;;;28.84;80.43;99705.31;5016193;28;20053;-84
2023/08/30 06:16:33;;;;;;;33.65;10.43;;;;;;;28.86;81.07;99702.28;5005498;28;20045;-88
2023/08/30 06:18:58;;;;;;;46.28;12.38;;;;;;;28.88;81.81;99695.38;5007763;28;20091;-88
2023/08/30 06:21:25;;;;;;;41.58;11.07;;;;;;;28.99;80.36;99705.41;5010597;28;20030;-93
2023/08/30 06:23:50;;;;;;;29.98;11.30;;;;;;;29.01;78.73;99719.84;5007151;28;20034;-90
2023/08/30 06:26:16;;;;;;;24.05;12.10;;;;;;;29.11;79.43;99728.19;5000845;28;20109;-90
2023/08/30 06:28:42;;;;;;;44.25;11.73;;;;;;;29.13;78.54;99709.38;5011847;28;20468;-91
2023/08/30 06:31:08;;;;;;;24.63;11.32;;;;;;;29.30;76.00;99719.47;4997847;28;20023;-92
2023/08/30 06:33:33;;;;;;;34.35;11.55;;;;;;;29.32;74.50;99722.81;5001737;28;20038;-92
2023/08/30 06:35:59;;;;;;;29.38;10.85;;;;;;;29.35;73.22;99723.13;4994026;28;20027;-90
2023/08/30 06:38:24;;;;;;;44.15;11.52;;;;;;;29.30;73.45;99702.84;4998392;28;20129;-94
2023/08/30 06:40:49;;;;;;;34.65;11.30;;;;;;;29.49;74.42;99731.75;5005239;28;20110;-89
2023/08/30 06:43:15;;;;;;;34.80;12.05;;;;;;;29.42;74.87;99731.16;4995642;28;20627;-92
2023/08/30 06:45:41;;;;;;;31.90;12.05;;;;;;;29.47;75.18;99725.66;5012598;28;20452;-93
2023/08/30 06:48:10;;;;;;;32.25;12.38;;;;;;;29.46;75.64;99735.06;5014029;28;20037;-92
2023/08/30 06:50:35;;;;;;;29.10;11.65;;;;;;;29.40;76.11;99741.69;5010246;28;20504;-89
2023/08/30 06:53:02;;;;;;;56.38;14.93;;;;;;;29.46;75.41;99741.44;4996198;28;20054;-95
2023/08/30 06:55:27;;;;;;;24.85;10.98;;;;;;;29.40;74.05;99731.44;4997533;28;20030;-94
2023/08/30 06:57:53;;;;;;;32.25;11.05;;;;;;;29.59;73.38;99748.44;5016663;28;20029;-93
2023/08/30 07:00:18;;;;;;;25.58;10.90;;;;;;;29.62;72.37;99754.28;5015275;28;20184;-91
2023/08/30 07:02:45;;;;;;;28.33;11.02;;;;;;;29.72;71.36;99745.19;5018109;28;20053;-93
2023/08/30 07:05:12;;;;;;;35.38;10.77;;;;;;;29.70;72.14;99753.75;5015958;28;20053;-94
2023/08/30 07:07:37;;;;;;;87.72;17.48;;;;;;;29.80;72.08;99752.97;5011783;28;20041;-90
2023/08/30 07:10:04;;;;;;;27.33;10.65;;;;;;;29.81;71.84;99748.25;5031848;28;20022;-83
2023/08/30 07:12:29;;;;;;;29.00;11.05;;;;;;;29.75;71.95;99741.88;5018061;28;20218;-82
2023/08/30 07:14:55;;;;;;;24.33;10.50;;;;;;;29.66;72.63;99730.44;5015803;28;20042;-83
2023/08/30 07:17:21;;;;;;;38.45;10.80;;;;;;;29.77;72.48;99758.22;5019783;28;20090;-84
2023/08/30 07:19:46;;;;;;;33.97;11.27;;;;;;;29.80;72.94;99765.97;5037121;28;20068;-87
2023/08/30 07:22:12;;;;;;;24.58;11.60;;;;;;;29.72;71.74;99734.09;5037893;28;20030;-84
2023/08/30 07:24:37;;;;;;;41.22;11.77;;;;;;;29.92;72.28;99753.59;5016984;28;20537;-95
2023/08/30 07:27:03;;;;;;;31.42;10.85;;;;;;;29.87;71.52;99742.50;4996945;28;20033;-95
2023/08/30 07:29:28;;;;;;;28.80;10.40;;;;;;;30.05;70.90;99753.09;5011535;28;20109;-94
2023/08/30 07:31:54;;;;;;;35.00;10.52;;;;;;;30.00;70.78;99747.50;5009853;28;20030;-92
2023/08/30 07:34:20;;;;;;;28.15;10.45;;;;;;;30.11;71.23;99753.91;5014190;28;20111;-90
2023/08/30 07:36:46;;;;;;;18.25;9.05;;;;;;;30.01;70.37;99743.63;4999163;28;20022;-92
2023/08/30 07:39:11;;;;;;;23.10;8.88;;;;;;;30.09;70.33;99762.50;4993772;28;20145;-92
2023/08/30 07:41:37;;;;;;;32.47;9.48;;;;;;;29.60;70.44;99691.91;4995121;28;20029;-87
2023/08/30 07:44:03;;;;;;;26.83;10.65;;;;;;;30.03;71.31;99771.09;4996289;28;20038;-95
2023/08/30 07:46:28;;;;;;;31.52;9.93;;;;;;;30.02;70.99;99766.66;4999017;28;20030;-92
2023/08/30 07:48:55;;;;;;;34.83;13.27;;;;;;;30.07;71.61;99753.63;4995991;28;20022;-92
2023/08/30 07:51:20;;;;;;;25.45;10.48;;;;;;;30.21;70.09;99765.84;4994139;28;20019;-90
2023/08/30 07:53:46;;;;;;;31.95;10.98;;;;;;;30.27;70.39;99754.78;4996279;28;20388;-91
2023/08/30 07:56:11;;;;;;;22.23;10.48;;;;;;;30.35;70.49;99768.13;5006382;28;20030;-91
2023/08/30 07:58:37;;;;;;;38.00;13.32;;;;;;;30.34;70.47;99763.66;5012240;28;20026;-91
2023/08/30 08:01:03;;;;;;;22.00;9.90;;;;;;;30.27;68.80;99765.88;5012645;28;20041;-90
2023/08/30 08:03:28;;;;;;;52.53;12.13;;;;;;;30.27;69.94;99768.66;5024259;28;20061;-84
2023/08/30 08:05:54;;;;;;;30.98;10.18;;;;;;;30.06;71.32;99763.03;5015729;28;20083;-94
2023/08/30 08:08:19;;;;;;;33.67;11.27;;;;;;;30.10;71.86;99753.09;5002277;28;20034;-92
2023/08/30 08:10:45;;;;;;;69.22;14.73;;;;;;;30.21;71.40;99742.84;4997418;28;20031;-90
2023/08/30 08:13:10;;;;;;;29.83;10.80;;;;;;;30.24;70.05;99758.94;4995720;28;20089;-92
2023/08/30 08:15:35;;;;;;;21.67;10.00;;;;;;;30.33;69.13;99753.69;5011762;28;20034;-91
2023/08/30 08:18:02;;;;;;;39.88;12.75;;;;;;;30.38;68.94;99748.97;4997894;28;20057;-88
2023/08/30 08:20:29;;;;;;;24.13;11.27;;;;;;;30.32;69.51;99732.59;4996386;28;20402;-91
2023/08/30 08:22:54;;;;;;;42.25;13.68;;;;;;;30.43;69.66;99745.38;4998656;28;20038;-88
2023/08/30 08:25:21;;;;;;;40.75;11.35;;;;;;;30.35;70.33;99743.13;5007498;28;20048;-87
2023/08/30 08:27:47;;;;;;;38.25;11.25;;;;;;;30.45;70.89;99744.03;5000295;28;20034;-94
2023/08/30 08:30:13;;;;;;;27.75;11.27;;;;;;;30.56;69.89;99733.75;5016009;28;20087;-92
2023/08/30 08:32:38;;;;;;;25.05;11.35;;;;;;;30.52;68.96;99722.38;5013889;28;20088;-92
2023/08/30 08:35:04;;;;;;;25.73;10.85;;;;;;;30.53;69.18;99745.41;5013779;28;20033;-92
2023/08/30 08:37:30;;;;;;;46.38;11.80;;;;;;;30.51;69.45;99748.47;5018444;28;20052;-90
2023/08/30 08:39:56;;;;;;;28.10;10.40;;;;;;;30.45;68.84;99735.69;5016177;28;20026;-93
2023/08/30 08:42:22;;;;;;;35.05;9.73;;;;;;;30.45;68.47;99726.53;5017058;28;20022;-93
2023/08/30 08:44:50;;;;;;;31.73;10.73;;;;;;;30.62;68.59;99747.34;5014880;28;20086;-93
2023/08/30 08:47:20;;;;;;;29.38;10.50;;;;;;;30.46;69.23;99739.28;5017053;28;20486;-95
2023/08/30 08:49:47;;;;;;;24.50;10.10;;;;;;;30.59;68.68;99744.28;5020621;28;20022;-82
2023/08/30 08:52:16;;;;;;;37.42;10.63;;;;;;;30.61;67.93;99744.88;5004728;28;20121;-94
2023/08/30 08:54:43;;;;;;;30.65;9.80;;;;;;;30.74;67.04;99747.06;5005402;28;20054;-93
2023/08/30 08:57:08;;;;;;;52.58;12.13;;;;;;;30.83;66.56;99734.28;5011777;28;20093;-86
2023/08/30 08:59:34;;;;;;;31.30;10.20;;;;;;;30.79;67.62;99727.66;5031069;28;20784;-93
2023/08/30 09:02:00;;;;;;;32.63;10.77;;;;;;;30.93;66.96;99734.28;5018604;28;20033;-90
2023/08/30 09:04:26;;;;;;;28.40;10.43;;;;;;;30.97;64.89;99729.88;5016261;28;20041;-85
2023/08/30 09:06:52;;;;;;;75.95;14.77;;;;;;;30.84;65.49;99735.13;4995476;28;20037;-91
2023/08/30 09:09:18;;;;;;;30.90;11.30;;;;;;;30.80;66.62;99737.63;4997507;28;20065;-90
2023/08/30 09:11:43;;;;;;;21.10;9.98;;;;;;;30.64;66.81;99711.00;5011983;28;20053;-89
2023/08/30 09:14:09;;;;;;;42.30;11.95;;;;;;;30.75;67.20;99732.09;4996918;28;20088;-92
2023/08/30 09:16:34;;;;;;;27.10;8.68;;;;;;;30.73;66.79;99750.97;5005651;28;20504;-89
2023/08/30 09:19:02;;;;;;;27.80;10.07;;;;;;;30.73;67.34;99751.78;5017755;28;20069;-93
2023/08/30 09:21:28;;;;;;;28.50;9.07;;;;;;;30.66;67.21;99730.97;5017393;28;20022;-93
2023/08/30 09:24:06;;;;;;;28.73;8.88;;;;;;;30.53;67.07;99725.97;5017304;28;20565;-91
2023/08/30 09:26:33;;;;;;;30.20;10.32;;;;;;;30.61;67.18;99737.34;5016996;28;20030;-94
2023/08/30 09:29:03;;;;;;;40.28;10.93;;;;;;;30.62;66.48;99746.53;5016474;28;20490;-90
2023/08/30 09:31:41;;;;;;;33.03;10.15;;;;;;;30.49;66.68;99727.63;5016080;28;20018;-94
2023/08/30 09:34:07;;;;;;;95.97;17.67;;;;;;;30.64;67.26;99736.81;5017324;28;20037;-92
2023/08/30 09:36:39;;;;;;;30.70;10.00;;;;;;;30.80;67.23;99737.63;5016174;28;20109;-93
2023/08/30 09:39:10;;;;;;;96.53;18.67;;;;;;;30.80;67.50;99722.91;5012307;28;20102;-91
2023/08/30 09:41:56;;;;;;;45.50;10.77;;;;;;;30.95;66.04;99740.44;4981888;28;20033;-89
2023/08/30 09:44:22;;;;;;;54.20;9.20;;;;;;;30.95;65.43;99729.31;4954610;29;20055;-93
2023/08/30 09:46:52;;;;;;;21.92;8.73;;;;;;;30.86;65.95;99730.97;4945465;29;20412;-89
2023/08/30 09:49:22;;;;;;;29.25;8.98;;;;;;;30.92;64.96;99729.00;4955925;29;20039;-94
2023/08/30 09:51:49;;;;;;;31.92;8.75;;;;;;;30.98;63.85;99737.09;4939212;29;20035;-92
2023/08/30 09:54:16;;;;;;;19.83;8.75;;;;;;;30.96;64.78;99716.25;4955292;29;20207;-90
2023/08/30 09:56:43;;;;;;;23.33;7.72;;;;;;;31.17;64.65;99727.06;4956170;29;20550;-90
2023/08/30 09:59:11;;;;;;;34.92;8.60;;;;;;;31.15;64.80;99737.63;4959691;29;20095;-92
2023/08/30 10:01:37;;;;;;;21.73;9.07;;;;;;;31.14;65.36;99733.19;4970450;29;20039;-90
2023/08/30 10:04:04;;;;;;;28.20;9.13;;;;;;;31.29;65.14;99732.31;4960079;29;20051;-92
2023/08/30 10:06:30;;;;;;;47.53;10.63;;;;;;;31.22;64.96;99727.03;4946336;29;20054;-93
2023/08/30 10:08:56;;;;;;;36.40;10.95;;;;;;;31.16;64.44;99725.38;4953949;29;20119;-85
2023/08/30 10:11:24;;;;;;;39.75;11.40;;;;;;;31.15;64.36;99715.41;4947665;29;20039;-92
2023/08/30 10:13:52;;;;;;;28.70;9.40;;;;;;;31.20;64.39;99704.25;4953291;29;20045;-89
2023/08/30 10:16:25;;;;;;;26.15;7.88;;;;;;;31.40;64.35;99730.34;4950124;29;20078;-83
2023/08/30 10:18:54;;;;;;;46.55;8.85;;;;;;;31.37;64.36;99725.34;4927164;29;20035;-81
2023/08/30 10:21:21;;;;;;;33.17;8.18;;;;;;;31.49;63.33;99726.72;4972133;28;20038;-82
2023/08/30 10:23:55;;;;;;;26.38;7.88;;;;;;;31.42;63.19;99708.63;5010150;28;20037;-80
2023/08/30 10:26:24;;;;;;;29.42;8.32;;;;;;;31.28;62.60;99714.78;5011150;28;20053;-83
2023/08/30 10:28:52;;;;;;;20.77;8.13;;;;;;;31.35;62.69;99724.78;5010152;28;20030;-80
2023/08/30 10:31:17;;;;;;;30.77;9.00;;;;;;;31.26;63.49;99722.59;5009432;28;20089;-80
2023/08/30 10:33:56;;;;;;;30.52;9.48;;;;;;;31.47;62.51;99725.28;4991678;28;20108;-79
2023/08/30 10:36:25;;;;;;;25.65;7.93;;;;;;;31.39;62.69;99715.59;4994180;28;20041;-79
2023/08/30 10:38:52;;;;;;;21.05;7.90;;;;;;;31.53;62.15;99725.03;4960790;28;20049;-83
2023/08/30 10:41:26;;;;;;;25.77;7.68;;;;;;;31.53;63.00;99729.78;4998802;28;20021;-80
2023/08/30 10:43:54;;;;;;;62.55;11.98;;;;;;;31.64;62.59;99728.59;5006387;28;20033;-84
2023/08/30 10:46:33;;;;;;;43.35;9.70;;;;;;;31.57;62.17;99691.94;5006813;28;20034;-78
2023/08/30 10:49:14;;;;;;;29.27;8.35;;;;;;;31.80;61.84;99721.88;4998507;28;20034;-82
2023/08/30 10:51:40;;;;;;;28.58;8.18;;;;;;;31.88;61.23;99712.91;5004005;28;20042;-86
2023/08/30 10:54:16;;;;;;;34.67;9.35;;;;;;;31.93;61.83;99710.09;5016039;28;20046;-88
2023/08/30 10:56:50;;;;;;;27.25;8.02;;;;;;;31.96;61.71;99709.50;4997395;28;20021;-86
2023/08/30 10:59:20;;;;;;;38.30;8.25;;;;;;;31.81;62.29;99713.22;4993727;28;20077;-81
2023/08/30 11:01:46;;;;;;;31.15;8.73;;;;;;;31.93;62.25;99720.38;4990250;28;20030;-80
2023/08/30 11:04:14;;;;;;;23.83;8.85;;;;;;;31.70;61.98;99702.44;4990825;28;20458;-81
2023/08/30 11:06:39;;;;;;;21.52;8.07;;;;;;;31.76;61.58;99707.69;4990093;28;20482;-80
2023/08/30 11:09:06;;;;;;;31.52;8.45;;;;;;;31.68;61.36;99690.78;4990273;28;20052;-81
2023/08/30 11:11:31;;;;;;;29.90;8.60;;;;;;;31.78;61.78;99704.63;4989778;28;20033;-82
2023/08/30 11:14:16;;;;;;;18.20;7.07;;;;;;;31.84;61.05;99697.91;4989883;28;20026;-82